Time;durP1;ratioP1;P1;durP2;ratioP2;P2;SDS_P1;SDS_P2;PMS_P1;PMS_P2;Temp;Humidity;BMP_temperature;BMP_pressure;BME280_temperature;BME280_humidity;BME280_pressure;Samples;Min_cycle;Max_cycle;Signal;HPM_P1;HPM_P2
2022/01/31 00:00:14;;;;;;;1.10;1.10;;;;;;;3.44;63.74;99228.81;103495;1284;110049;-74
2022/01/31 00:03:02;;;;;;;1.10;1.10;;;;;;;3.40;64.16;99228.35;103440;1284;140263;-74
2022/01/31 00:05:30;;;;;;;1.00;1.00;;;;;;;3.33;64.62;99235.83;103494;1285;108297;-80
2022/01/31 00:07:58;;;;;;;1.10;1.10;;;;;;;3.28;64.21;99240.80;103381;1285;140030;-75
2022/01/31 00:10:30;;;;;;;1.30;1.30;;;;;;;3.24;64.38;99235.44;103468;1285;95191;-72
2022/01/31 00:13:09;;;;;;;1.20;1.20;;;;;;;3.21;64.20;99236.90;103466;1285;110276;-75
2022/01/31 00:15:40;;;;;;;1.10;1.10;;;;;;;3.17;64.27;99248.52;103359;1285;141057;-74
2022/01/31 00:18:09;;;;;;;1.10;1.10;;;;;;;3.12;64.57;99250.88;103473;1284;108098;-76
2022/01/31 00:20:37;;;;;;;1.20;1.20;;;;;;;3.09;65.57;99250.57;103380;1287;141295;-73
2022/01/31 00:23:05;;;;;;;1.10;1.10;;;;;;;3.09;66.06;99249.17;103522;1285;95457;-75
2022/01/31 00:25:33;;;;;;;1.10;1.10;;;;;;;3.13;66.60;99243.49;103447;1284;109674;-79
2022/01/31 00:28:00;;;;;;;1.00;1.00;;;;;;;3.13;66.18;99247.35;103354;1284;139812;-73
2022/01/31 00:30:28;;;;;;;1.00;1.00;;;;;;;3.14;65.69;99238.73;103408;1284;107809;-74
2022/01/31 00:32:56;;;;;;;1.20;1.20;;;;;;;3.13;65.48;99241.55;103445;1284;139593;-75
2022/01/31 00:35:27;;;;;;;1.20;1.20;;;;;;;3.13;65.24;99239.80;103669;1287;95227;-74
2022/01/31 00:37:55;;;;;;;1.10;1.10;;;;;;;3.24;65.43;99243.86;103338;1287;140528;-77
2022/01/31 00:40:23;;;;;;;1.10;1.10;;;;;;;3.28;65.50;99242.76;103508;1284;100244;-74
2022/01/31 00:42:52;;;;;;;1.10;1.10;;;;;;;3.30;65.33;99241.99;103528;1285;109331;-73
2022/01/31 00:45:27;;;;;;;1.20;1.20;;;;;;;3.29;65.83;99243.60;103385;1284;139689;-82
2022/01/31 00:48:04;;;;;;;1.10;1.10;;;;;;;3.31;65.91;99240.75;103507;1285;95876;-74
2022/01/31 00:50:39;;;;;;;1.10;1.10;;;;;;;3.33;65.46;99244.23;103674;1284;141724;-76
2022/01/31 00:53:08;;;;;;;1.00;1.00;;;;;;;3.34;65.20;99253.87;103995;1287;99927;-74
2022/01/31 00:55:36;;;;;;;1.10;1.10;;;;;;;3.35;65.74;99261.05;103957;1284;108861;-72
2022/01/31 00:58:04;;;;;;;1.10;1.10;;;;;;;3.38;65.57;99266.81;103401;1284;140174;-73
2022/01/31 01:00:32;;;;;;;1.10;1.10;;;;;;;3.41;65.53;99262.38;103493;1284;95176;-78
2022/01/31 01:03:00;;;;;;;1.00;1.00;;;;;;;3.45;65.29;99264.95;103582;1284;139125;-76
2022/01/31 01:05:27;;;;;;;1.20;1.20;;;;;;;3.44;65.18;99259.86;103627;1285;99072;-81
2022/01/31 01:07:56;;;;;;;1.10;1.10;;;;;;;3.41;65.32;99264.66;103442;1284;139091;-74
2022/01/31 01:10:24;;;;;;;1.00;1.00;;;;;;;3.42;65.04;99265.86;103478;1284;95654;-81
2022/01/31 01:12:54;;;;;;;1.10;1.10;;;;;;;3.44;65.01;99272.84;103506;1284;95518;-78
2022/01/31 01:15:22;;;;;;;1.10;1.10;;;;;;;3.40;64.01;99280.11;103415;1285;139003;-77
2022/01/31 01:17:49;;;;;;;1.10;1.10;;;;;;;3.35;64.03;99280.89;103406;1287;98390;-76
2022/01/31 01:20:18;;;;;;;1.10;1.10;;;;;;;3.32;64.53;99278.11;103524;1284;141459;-72
2022/01/31 01:22:46;;;;;;;1.30;1.30;;;;;;;3.32;64.46;99287.94;103421;1285;95967;-75
2022/01/31 01:25:14;;;;;;;1.10;1.10;;;;;;;3.30;63.75;99291.48;103528;1284;95363;-72
2022/01/31 01:27:45;;;;;;;1.10;1.10;;;;;;;3.26;63.32;99301.89;104011;1284;140927;-84
2022/01/31 01:30:14;;;;;;;1.10;1.10;;;;;;;3.25;63.63;99298.39;103497;1285;99830;-79
2022/01/31 01:33:20;;;;;;;1.20;1.20;;;;;;;3.24;62.91;99303.15;103413;1284;139007;-79
2022/01/31 01:35:39;;;;;;;1.20;1.20;;;;;;;3.21;62.55;99304.06;103432;1285;95317;-72
2022/01/31 01:38:07;;;;;;;1.30;1.30;;;;;;;3.21;62.49;99300.55;103362;1284;139548;-73
2022/01/31 01:40:39;;;;;;;1.20;1.20;;;;;;;3.19;62.01;99298.13;103621;1284;110205;-75
2022/01/31 01:43:09;;;;;;;1.40;1.40;;;;;;;3.16;61.19;99296.25;103439;1285;99909;-74
2022/01/31 01:45:39;;;;;;;1.20;1.20;;;;;;;3.11;60.96;99297.36;103351;1285;140837;-75
2022/01/31 01:48:09;;;;;;;1.40;1.40;;;;;;;3.07;61.39;99299.87;103520;1285;95804;-72
2022/01/31 01:50:38;;;;;;;1.20;1.20;;;;;;;3.02;61.15;99297.65;103396;1284;139223;-79
2022/01/31 01:53:07;;;;;;;1.20;1.20;;;;;;;3.02;61.17;99296.61;103627;1287;109991;-73
2022/01/31 01:55:35;;;;;;;1.20;1.20;;;;;;;3.04;61.38;99297.81;103488;1285;98306;-83
2022/01/31 01:58:06;;;;;;;1.30;1.30;;;;;;;3.03;60.45;99291.86;103574;1284;139363;-74
2022/01/31 02:00:50;;;;;;;1.30;1.30;;;;;;;3.02;60.83;99287.31;103570;1284;95222;-75
2022/01/31 02:03:21;;;;;;;1.20;1.20;;;;;;;2.97;60.69;99284.05;103462;1284;139528;-75
2022/01/31 02:05:49;;;;;;;1.30;1.30;;;;;;;2.96;61.25;99279.15;103651;1285;108418;-72
2022/01/31 02:08:18;;;;;;;1.30;1.30;;;;;;;3.01;61.11;99265.59;103413;1284;141039;-85
2022/01/31 02:10:46;;;;;;;1.20;1.20;;;;;;;3.05;61.23;99268.52;103495;1284;109416;-73
2022/01/31 02:13:29;;;;;;;1.30;1.30;;;;;;;3.06;61.27;99260.25;103461;1285;95221;-76
2022/01/31 02:16:08;;;;;;;1.20;1.20;;;;;;;3.03;60.66;99259.95;103479;1284;139283;-74
2022/01/31 02:18:51;;;;;;;1.40;1.40;;;;;;;3.03;61.19;99266.61;103534;1285;111061;-72
2022/01/31 02:21:38;;;;;;;1.30;1.30;;;;;;;3.01;61.44;99275.05;103377;1284;139853;-77
2022/01/31 02:24:25;;;;;;;1.30;1.30;;;;;;;3.08;62.08;99272.31;103627;1284;109472;-76
2022/01/31 02:27:11;;;;;;;1.30;1.30;;;;;;;3.14;62.48;99274.52;103339;1284;139132;-76
2022/01/31 02:29:39;;;;;;;1.10;1.10;;;;;;;3.18;62.69;99272.88;103520;1285;95662;-73
2022/01/31 02:32:07;;;;;;;1.20;1.20;;;;;;;3.19;62.89;99268.50;103412;1284;138497;-72
2022/01/31 02:34:36;;;;;;;1.30;1.30;;;;;;;3.18;63.43;99268.16;103463;1284;97206;-74
2022/01/31 02:37:04;;;;;;;1.20;1.20;;;;;;;3.16;63.80;99272.20;103638;1284;106779;-76
2022/01/31 02:39:31;;;;;;;1.10;1.10;;;;;;;3.16;64.23;99269.58;103371;1285;139474;-75
2022/01/31 02:41:59;;;;;;;1.20;1.20;;;;;;;3.20;64.23;99261.45;103435;1284;95789;-72
2022/01/31 02:44:28;;;;;;;1.20;1.20;;;;;;;3.21;64.64;99260.73;103303;1284;140391;-77
2022/01/31 02:47:23;;;;;;;1.10;1.10;;;;;;;3.33;65.01;99255.13;103534;1284;100740;-72
2022/01/31 02:50:01;;;;;;;1.10;1.10;;;;;;;3.44;65.50;99257.06;103556;1284;108438;-73
2022/01/31 02:52:34;;;;;;;1.10;1.10;;;;;;;3.49;65.15;99250.84;103509;1283;139594;-74
2022/01/31 02:55:04;;;;;;;1.10;1.10;;;;;;;3.52;65.40;99258.86;103596;1284;95289;-72
2022/01/31 02:57:32;;;;;;;1.00;1.00;;;;;;;3.52;65.16;99251.67;103482;1284;141106;-72
2022/01/31 03:00:00;;;;;;;1.10;1.10;;;;;;;3.45;64.92;99250.38;103662;1284;98569;-74
2022/01/31 03:02:37;;;;;;;1.00;1.00;;;;;;;3.38;64.93;99248.57;103639;1283;140127;-73
2022/01/31 03:05:05;;;;;;;1.10;1.10;;;;;;;3.30;65.08;99242.71;103512;1284;95248;-79
2022/01/31 03:07:34;;;;;;;1.10;1.10;;;;;;;3.24;64.98;99242.80;103763;1284;95403;-81
2022/01/31 03:10:02;;;;;;;1.00;1.00;;;;;;;3.23;64.64;99238.08;103416;1284;140382;-77
2022/01/31 03:12:30;;;;;;;1.10;1.10;;;;;;;3.26;64.81;99234.19;103454;1284;99829;-73
2022/01/31 03:15:00;;;;;;;1.10;1.10;;;;;;;3.24;64.86;99234.91;103407;1284;139223;-72
2022/01/31 03:18:02;;;;;;;1.20;1.20;;;;;;;3.18;64.68;99233.23;103282;1284;96839;-72
2022/01/31 03:20:29;;;;;;;1.00;1.00;;;;;;;3.22;65.09;99234.95;103479;1284;140058;-72
2022/01/31 03:22:58;;;;;;;1.20;1.20;;;;;;;3.19;64.83;99243.58;103610;1284;109899;-76
2022/01/31 03:25:26;;;;;;;1.10;1.10;;;;;;;3.12;64.93;99241.76;103597;1284;100198;-72
2022/01/31 03:27:55;;;;;;;1.20;1.20;;;;;;;3.00;65.01;99251.73;103350;1284;138142;-73
2022/01/31 03:30:24;;;;;;;1.20;1.20;;;;;;;2.99;65.35;99252.98;103541;1284;95581;-75
2022/01/31 03:32:55;;;;;;;1.10;1.10;;;;;;;2.99;65.07;99261.05;103585;1284;138775;-74
2022/01/31 03:35:23;;;;;;;1.20;1.20;;;;;;;2.98;65.60;99265.27;103549;1284;110529;-75
2022/01/31 03:37:51;;;;;;;1.10;1.10;;;;;;;2.97;65.53;99271.61;103555;1284;99723;-79
2022/01/31 03:40:23;;;;;;;1.20;1.20;;;;;;;2.99;65.40;99270.52;103473;1284;140275;-78
2022/01/31 03:42:51;;;;;;;1.10;1.10;;;;;;;2.97;65.41;99272.83;103598;1283;95457;-73
2022/01/31 03:45:19;;;;;;;1.00;1.00;;;;;;;2.93;65.35;99263.77;103532;1284;138907;-77
2022/01/31 03:47:51;;;;;;;1.10;1.10;;;;;;;2.90;65.59;99261.52;103558;1284;107405;-74
2022/01/31 03:50:19;;;;;;;1.20;1.20;;;;;;;2.82;65.40;99264.79;103381;1284;139911;-79
2022/01/31 03:52:52;;;;;;;1.20;1.20;;;;;;;2.79;65.35;99267.80;103412;1285;109639;-73
2022/01/31 03:55:21;;;;;;;1.20;1.20;;;;;;;2.81;65.29;99264.45;103669;1284;95229;-75
2022/01/31 03:57:49;;;;;;;1.20;1.20;;;;;;;2.84;65.51;99262.99;103511;1284;139328;-73
2022/01/31 04:00:36;;;;;;;1.20;1.20;;;;;;;2.88;65.34;99264.02;103474;1284;110231;-75
2022/01/31 04:03:04;;;;;;;1.20;1.20;;;;;;;2.88;65.50;99263.65;103401;1284;139880;-80
2022/01/31 04:05:32;;;;;;;1.10;1.10;;;;;;;2.87;65.31;99258.75;103555;1284;109739;-77
2022/01/31 04:08:00;;;;;;;1.20;1.20;;;;;;;2.90;65.20;99265.55;103651;1283;95267;-80
2022/01/31 04:10:27;;;;;;;1.30;1.30;;;;;;;2.88;65.25;99261.38;103376;1284;140262;-83
2022/01/31 04:12:55;;;;;;;1.20;1.20;;;;;;;2.85;65.13;99261.06;103628;1284;110211;-74
2022/01/31 04:15:23;;;;;;;1.20;1.20;;;;;;;2.82;65.54;99255.13;103560;1283;139735;-77
2022/01/31 04:17:51;;;;;;;1.20;1.20;;;;;;;2.83;65.57;99252.33;103501;1284;109338;-76
2022/01/31 04:20:19;;;;;;;1.10;1.10;;;;;;;2.78;65.47;99255.72;103368;1284;138496;-73
2022/01/31 04:23:01;;;;;;;1.20;1.20;;;;;;;2.74;65.86;99249.64;103577;1284;95201;-75
2022/01/31 04:25:41;;;;;;;1.30;1.30;;;;;;;2.73;65.80;99256.66;103593;1284;109662;-71
2022/01/31 04:28:22;;;;;;;1.20;1.20;;;;;;;2.71;65.93;99256.34;103555;1284;140455;-75
2022/01/31 04:30:58;;;;;;;1.20;1.20;;;;;;;2.69;65.98;99249.88;103842;1284;108458;-79
2022/01/31 04:33:27;;;;;;;1.20;1.20;;;;;;;2.67;66.12;99246.77;103499;1283;139180;-76
2022/01/31 04:35:55;;;;;;;1.10;1.10;;;;;;;2.62;66.20;99244.70;103608;1284;95487;-79
2022/01/31 04:38:23;;;;;;;1.10;1.10;;;;;;;2.56;66.32;99238.13;103520;1284;140214;-77
2022/01/31 04:40:51;;;;;;;1.10;1.10;;;;;;;2.50;66.40;99240.99;103514;1284;100158;-76
2022/01/31 04:43:19;;;;;;;1.30;1.30;;;;;;;2.47;66.49;99244.55;103629;1284;108410;-73
2022/01/31 04:45:47;;;;;;;1.20;1.20;;;;;;;2.42;66.72;99240.57;103596;1284;140159;-76
2022/01/31 04:48:17;;;;;;;1.20;1.20;;;;;;;2.42;66.66;99241.27;103710;1284;95778;-75
2022/01/31 04:50:46;;;;;;;1.10;1.10;;;;;;;2.42;66.88;99251.07;103521;1284;140416;-81
2022/01/31 04:53:14;;;;;;;1.20;1.20;;;;;;;2.41;66.73;99246.19;103574;1284;98519;-73
2022/01/31 04:55:42;;;;;;;1.20;1.20;;;;;;;2.38;67.10;99248.34;103564;1284;109322;-73
2022/01/31 04:58:10;;;;;;;1.20;1.20;;;;;;;2.36;67.05;99246.25;103586;1283;139912;-72
2022/01/31 05:00:38;;;;;;;1.20;1.20;;;;;;;2.35;66.90;99249.59;103515;1284;97018;-73
2022/01/31 05:03:18;;;;;;;1.10;1.10;;;;;;;2.32;67.05;99250.86;103542;1284;140238;-75
2022/01/31 05:05:47;;;;;;;1.20;1.20;;;;;;;2.33;67.16;99249.08;103509;1284;99932;-76
2022/01/31 05:08:16;;;;;;;1.40;1.40;;;;;;;2.32;67.07;99246.47;103316;1284;139651;-75
2022/01/31 05:10:49;;;;;;;1.20;1.20;;;;;;;2.31;67.24;99247.70;103624;1284;95785;-75
2022/01/31 05:13:17;;;;;;;1.20;1.20;;;;;;;2.39;66.86;99250.60;103718;1284;96130;-73
2022/01/31 05:15:46;;;;;;;1.20;1.20;;;;;;;2.38;67.13;99247.27;103573;1284;139298;-79
2022/01/31 05:18:14;;;;;;;1.20;1.20;;;;;;;2.36;67.02;99246.23;103617;1284;100190;-74
2022/01/31 05:20:42;;;;;;;1.20;1.20;;;;;;;2.33;66.90;99245.23;103389;1284;141036;-76
2022/01/31 05:23:09;;;;;;;1.20;1.20;;;;;;;2.31;67.14;99240.88;103533;1284;95770;-75
2022/01/31 05:25:37;;;;;;;1.10;1.10;;;;;;;2.31;67.25;99246.13;103622;1284;95703;-76
2022/01/31 05:28:05;;;;;;;1.20;1.20;;;;;;;2.28;67.07;99243.18;103480;1283;138632;-74
2022/01/31 05:30:33;;;;;;;1.40;1.40;;;;;;;2.27;67.47;99241.98;103544;1284;99025;-74
2022/01/31 05:33:00;;;;;;;1.20;1.20;;;;;;;2.31;67.46;99235.45;103457;1283;140520;-74
2022/01/31 05:35:28;;;;;;;1.30;1.30;;;;;;;2.34;67.16;99236.98;103625;1284;95264;-72
2022/01/31 05:38:02;;;;;;;1.10;1.10;;;;;;;2.30;67.26;99229.48;103666;1283;95472;-74
2022/01/31 05:40:30;;;;;;;1.20;1.20;;;;;;;2.25;67.17;99225.02;103542;1283;139326;-76
2022/01/31 05:42:58;;;;;;;1.20;1.20;;;;;;;2.28;67.06;99222.88;103630;1284;100267;-78
2022/01/31 05:45:26;;;;;;;1.20;1.20;;;;;;;2.28;67.15;99225.85;103356;1284;139159;-74
2022/01/31 05:47:54;;;;;;;1.30;1.30;;;;;;;2.29;67.08;99233.55;103542;1284;95222;-74
2022/01/31 05:50:21;;;;;;;1.30;1.30;;;;;;;2.28;66.97;99231.98;103534;1284;139226;-73
2022/01/31 05:52:49;;;;;;;1.30;1.30;;;;;;;2.29;67.26;99226.36;103595;1284;110149;-73
2022/01/31 05:55:17;;;;;;;1.20;1.20;;;;;;;2.33;67.12;99226.83;103501;1284;100028;-80
2022/01/31 05:57:44;;;;;;;1.30;1.30;;;;;;;2.37;66.83;99222.23;103494;1284;139429;-79
2022/01/31 06:00:13;;;;;;;1.40;1.40;;;;;;;2.36;67.03;99221.55;103479;1284;95555;-75
2022/01/31 06:02:41;;;;;;;1.20;1.20;;;;;;;2.34;66.87;99214.91;103625;1284;140924;-81
2022/01/31 06:05:09;;;;;;;1.20;1.20;;;;;;;2.33;67.09;99219.31;103705;1284;110421;-76
2022/01/31 06:07:37;;;;;;;1.20;1.20;;;;;;;2.32;66.78;99219.85;103655;1284;99721;-73
2022/01/31 06:10:05;;;;;;;1.20;1.20;;;;;;;2.29;66.74;99219.18;103516;1284;139727;-73
2022/01/31 06:12:33;;;;;;;1.20;1.20;;;;;;;2.25;67.19;99221.84;103571;1284;95752;-78
2022/01/31 06:15:00;;;;;;;1.20;1.20;;;;;;;2.26;66.79;99223.77;103545;1284;140605;-74
2022/01/31 06:17:28;;;;;;;1.30;1.30;;;;;;;2.27;66.86;99224.63;103688;1284;110035;-74
2022/01/31 06:19:56;;;;;;;1.20;1.20;;;;;;;2.24;66.64;99223.44;103894;1284;98377;-75
2022/01/31 06:22:23;;;;;;;1.30;1.30;;;;;;;2.22;66.83;99226.08;103529;1284;140529;-74
2022/01/31 06:24:51;;;;;;;1.30;1.30;;;;;;;2.26;66.68;99222.20;103560;1284;95221;-80
2022/01/31 06:27:30;;;;;;;1.20;1.20;;;;;;;2.31;66.63;99220.21;103520;1284;139861;-77
2022/01/31 06:29:59;;;;;;;1.20;1.20;;;;;;;2.30;66.83;99218.46;103674;1284;110184;-74
2022/01/31 06:32:28;;;;;;;1.20;1.20;;;;;;;2.27;66.50;99219.02;103567;1284;139811;-79
2022/01/31 06:34:57;;;;;;;1.20;1.20;;;;;;;2.25;66.66;99215.73;103607;1284;109274;-77
2022/01/31 06:37:24;;;;;;;1.30;1.30;;;;;;;2.25;66.44;99214.84;103474;1284;95583;-73
2022/01/31 06:39:52;;;;;;;1.30;1.30;;;;;;;2.26;66.35;99217.29;103505;1284;139920;-76
2022/01/31 06:42:20;;;;;;;1.20;1.20;;;;;;;2.23;66.18;99214.70;103647;1284;109783;-77
2022/01/31 06:44:48;;;;;;;1.40;1.40;;;;;;;2.22;66.37;99211.73;103486;1284;140586;-80
2022/01/31 06:47:18;;;;;;;1.30;1.30;;;;;;;2.22;65.84;99211.91;103630;1284;109340;-77
2022/01/31 06:49:49;;;;;;;1.10;1.10;;;;;;;2.20;66.27;99210.35;103509;1284;95812;-75
2022/01/31 06:52:16;;;;;;;1.20;1.20;;;;;;;2.29;66.35;99212.01;103494;1284;137419;-73
2022/01/31 06:54:49;;;;;;;1.30;1.30;;;;;;;2.30;66.16;99207.79;103591;1284;110190;-74
2022/01/31 06:57:23;;;;;;;1.20;1.20;;;;;;;2.30;66.02;99206.21;103426;1284;139820;-78
2022/01/31 06:59:51;;;;;;;1.30;1.30;;;;;;;2.33;66.01;99204.42;103597;1284;109514;-75
2022/01/31 07:02:18;;;;;;;1.20;1.20;;;;;;;2.36;65.83;99206.13;103475;1283;140412;-75
2022/01/31 07:04:46;;;;;;;1.30;1.30;;;;;;;2.35;65.81;99201.25;103591;1283;95652;-74
2022/01/31 07:07:14;;;;;;;1.40;1.40;;;;;;;2.37;65.91;99204.39;103642;1284;107130;-74
2022/01/31 07:09:42;;;;;;;1.40;1.40;;;;;;;2.39;65.72;99208.39;103518;1284;140046;-74
2022/01/31 07:12:12;;;;;;;1.30;1.30;;;;;;;2.36;65.69;99206.85;103513;1284;109498;-75
2022/01/31 07:14:40;;;;;;;1.20;1.20;;;;;;;2.37;66.12;99208.40;103588;1284;139852;-83
2022/01/31 07:17:07;;;;;;;1.30;1.30;;;;;;;2.43;66.09;99211.83;103711;1284;95683;-77
2022/01/31 07:19:38;;;;;;;1.20;1.20;;;;;;;2.39;65.62;99202.60;103493;1284;142876;-75
2022/01/31 07:22:10;;;;;;;1.20;1.20;;;;;;;2.33;65.97;99204.06;103692;1284;99911;-76
2022/01/31 07:27:06;;;;;;;1.20;1.20;;;;;;;2.42;66.10;99205.01;103624;1284;95196;-75
2022/01/31 07:29:33;;;;;;;1.20;1.20;;;;;;;2.40;65.86;99202.23;103708;1284;95606;-75
2022/01/31 07:32:03;;;;;;;1.20;1.20;;;;;;;2.41;65.90;99202.05;103648;1284;138971;-80
2022/01/31 07:34:31;;;;;;;1.10;1.10;;;;;;;2.46;66.16;99198.30;103781;1284;98333;-79
2022/01/31 07:37:03;;;;;;;1.30;1.30;;;;;;;2.47;65.65;99201.61;103433;1284;139071;-80
2022/01/31 07:39:31;;;;;;;1.20;1.20;;;;;;;2.48;65.78;99199.69;103651;1284;95758;-79
2022/01/31 07:41:59;;;;;;;1.20;1.20;;;;;;;2.52;65.70;99201.73;103566;1284;141000;-74
2022/01/31 07:44:27;;;;;;;1.20;1.20;;;;;;;2.51;65.73;99199.64;103673;1283;110635;-76
2022/01/31 07:46:55;;;;;;;1.30;1.30;;;;;;;2.51;65.79;99188.61;103595;1284;100304;-82
2022/01/31 07:49:23;;;;;;;1.20;1.20;;;;;;;2.46;65.71;99190.41;103482;1284;139367;-82
2022/01/31 07:51:50;;;;;;;1.30;1.30;;;;;;;2.44;65.47;99187.65;103673;1284;95766;-77
2022/01/31 07:54:24;;;;;;;1.20;1.20;;;;;;;2.45;65.75;99187.27;104135;1284;140243;-74
2022/01/31 07:56:52;;;;;;;1.10;1.10;;;;;;;2.49;65.76;99182.85;103711;1284;109580;-74
2022/01/31 07:59:20;;;;;;;1.10;1.10;;;;;;;2.50;65.78;99181.96;103571;1284;100417;-76
2022/01/31 08:01:47;;;;;;;1.20;1.20;;;;;;;2.51;65.41;99179.15;103486;1284;141879;-76
2022/01/31 08:04:15;;;;;;;1.30;1.30;;;;;;;2.55;65.65;99173.48;103553;1284;95551;-74
2022/01/31 08:06:43;;;;;;;1.10;1.10;;;;;;;2.60;65.68;99173.25;103591;1284;139169;-83
2022/01/31 08:09:11;;;;;;;1.20;1.20;;;;;;;2.62;65.34;99176.72;103634;1283;108725;-78
2022/01/31 08:11:39;;;;;;;1.20;1.20;;;;;;;2.61;64.88;99176.56;103479;1284;98464;-75
2022/01/31 08:14:09;;;;;;;1.20;1.20;;;;;;;2.60;64.99;99178.68;103555;1284;138112;-75
2022/01/31 08:16:38;;;;;;;1.30;1.30;;;;;;;2.63;65.23;99179.16;103504;1284;95152;-74
2022/01/31 08:19:08;;;;;;;1.20;1.20;;;;;;;2.69;65.27;99184.16;103840;1284;139072;-74
2022/01/31 08:21:55;;;;;;;1.30;1.30;;;;;;;2.73;65.21;99187.79;103583;1284;109683;-74
2022/01/31 08:24:23;;;;;;;1.10;1.10;;;;;;;2.80;64.74;99181.89;103502;1284;140530;-80
2022/01/31 08:26:55;;;;;;;1.10;1.10;;;;;;;2.82;64.54;99181.86;103725;1284;108438;-74
2022/01/31 08:29:33;;;;;;;1.20;1.20;;;;;;;2.77;64.35;99180.02;103619;1284;95774;-78
2022/01/31 08:32:09;;;;;;;1.30;1.30;;;;;;;2.74;64.35;99174.96;103599;1284;137753;-75
2022/01/31 08:37:25;;;;;;;1.10;1.10;;;;;;;2.70;64.47;99165.75;103562;1284;140109;-77
2022/01/31 08:39:52;;;;;;;1.20;1.20;;;;;;;2.68;64.50;99161.92;103568;1284;109531;-75
2022/01/31 08:42:20;;;;;;;1.30;1.30;;;;;;;2.66;64.56;99161.23;103586;1284;141763;-75
2022/01/31 08:44:48;;;;;;;1.40;1.40;;;;;;;2.65;64.68;99159.67;103719;1285;95289;-74
2022/01/31 08:47:16;;;;;;;1.20;1.20;;;;;;;2.70;64.42;99158.20;103644;1284;110723;-76
2022/01/31 08:49:45;;;;;;;1.20;1.20;;;;;;;2.73;64.28;99155.88;103585;1284;140287;-74
2022/01/31 08:52:13;;;;;;;1.30;1.30;;;;;;;2.75;64.43;99157.09;103674;1284;109417;-74
2022/01/31 08:54:41;;;;;;;1.40;1.40;;;;;;;2.76;64.46;99157.41;103471;1284;139611;-79
2022/01/31 08:57:09;;;;;;;1.30;1.30;;;;;;;2.78;63.90;99155.12;103629;1284;95188;-73
2022/01/31 08:59:43;;;;;;;1.30;1.30;;;;;;;2.83;64.12;99152.41;103499;1284;109564;-77
2022/01/31 09:02:16;;;;;;;1.30;1.30;;;;;;;2.84;63.95;99153.10;103558;1284;140643;-77
2022/01/31 09:04:51;;;;;;;1.20;1.20;;;;;;;2.80;63.74;99151.92;103909;1284;109400;-77
2022/01/31 09:07:21;;;;;;;1.20;1.20;;;;;;;2.72;64.13;99147.66;103484;1284;139101;-81
2022/01/31 09:09:53;;;;;;;1.20;1.20;;;;;;;2.70;63.99;99147.70;103640;1284;96506;-78
2022/01/31 09:12:24;;;;;;;1.20;1.20;;;;;;;2.80;64.28;99148.08;103476;1284;139601;-75
2022/01/31 09:14:52;;;;;;;1.10;1.10;;;;;;;2.92;63.79;99147.37;103827;1284;99915;-75
2022/01/31 09:17:20;;;;;;;1.40;1.40;;;;;;;2.98;63.54;99141.13;103589;1284;109322;-81
2022/01/31 09:19:47;;;;;;;1.20;1.20;;;;;;;3.01;63.33;99143.53;103417;1284;139936;-77
2022/01/31 09:22:15;;;;;;;1.30;1.30;;;;;;;3.11;62.92;99141.09;103569;1284;95270;-73
2022/01/31 09:24:44;;;;;;;1.20;1.20;;;;;;;3.21;62.52;99136.73;103455;1284;140645;-81
2022/01/31 09:27:12;;;;;;;1.10;1.10;;;;;;;3.32;62.25;99137.77;103522;1284;98657;-73
2022/01/31 09:29:40;;;;;;;1.20;1.20;;;;;;;3.48;62.20;99135.20;103614;1284;107474;-79
2022/01/31 09:32:10;;;;;;;1.20;1.20;;;;;;;3.60;62.18;99129.02;103604;1284;141555;-77
2022/01/31 09:34:38;;;;;;;1.20;1.20;;;;;;;3.76;61.34;99122.75;103662;1284;95243;-75
2022/01/31 09:37:07;;;;;;;1.10;1.10;;;;;;;3.98;61.14;99114.96;103530;1285;139474;-75
2022/01/31 09:39:35;;;;;;;1.00;1.00;;;;;;;4.41;60.40;99114.05;103610;1284;120683;-74
2022/01/31 09:42:07;;;;;;;1.00;1.00;;;;;;;4.68;58.59;99109.40;103432;1284;143322;-78
2022/01/31 09:50:18;;;;;;;1.00;1.00;;;;;;;4.51;58.72;99099.60;103401;1284;138509;-74
2022/01/31 09:52:46;;;;;;;1.00;1.00;;;;;;;4.36;58.99;99095.18;103560;1284;99465;-76
2022/01/31 09:55:14;;;;;;;1.00;1.00;;;;;;;4.30;58.70;99095.34;103899;1284;138493;-85
2022/01/31 09:57:42;;;;;;;0.90;0.90;;;;;;;4.26;59.07;99089.43;103587;1284;95699;-76
2022/01/31 10:00:10;;;;;;;1.00;1.00;;;;;;;4.27;59.12;99090.65;103441;1284;141972;-74
2022/01/31 10:03:04;;;;;;;1.10;1.10;;;;;;;4.30;59.13;99088.82;103686;1284;109064;-77
2022/01/31 10:05:32;;;;;;;0.90;0.90;;;;;;;4.17;58.70;99086.64;103874;1284;100144;-76
2022/01/31 10:08:12;;;;;;;1.10;1.10;;;;;;;4.07;59.43;99087.04;103503;1284;139416;-79
2022/01/31 10:10:43;;;;;;;1.00;1.00;;;;;;;4.03;58.93;99082.72;103798;1285;95750;-77
2022/01/31 10:19:07;;;;;;;1.10;1.10;;;;;;;4.09;59.19;99086.64;103523;1284;140429;-76
2022/01/31 10:21:55;;;;;;;1.20;1.20;;;;;;;4.08;59.67;99084.04;103609;1284;109905;-78
2022/01/31 10:24:24;;;;;;;1.10;1.10;;;;;;;4.19;58.88;99082.39;103520;1284;141857;-76
2022/01/31 10:26:52;;;;;;;1.10;1.10;;;;;;;4.16;57.41;99080.52;103515;1285;95262;-74
2022/01/31 10:29:22;;;;;;;1.10;1.10;;;;;;;4.03;57.22;99082.02;103600;1284;110064;-74
2022/01/31 10:32:02;;;;;;;1.10;1.10;;;;;;;3.96;56.66;99079.02;103524;1284;139802;-73
2022/01/31 10:34:32;;;;;;;1.10;1.10;;;;;;;4.19;57.12;99070.77;103547;1284;109382;-78
2022/01/31 10:37:07;;;;;;;1.10;1.10;;;;;;;4.72;56.30;99057.64;103531;1284;139477;-75
2022/01/31 10:45:43;;;;;;;1.10;1.10;;;;;;;4.60;53.57;99050.02;103583;1284;100584;-77
2022/01/31 10:54:13;;;;;;;1.10;1.10;;;;;;;5.08;51.90;99046.90;103610;1284;95785;-75
2022/01/31 10:56:45;;;;;;;1.00;1.00;;;;;;;4.87;51.26;99046.53;103613;1284;139884;-74
2022/01/31 10:59:24;;;;;;;1.10;1.10;;;;;;;4.57;50.81;99048.15;103647;1284;99732;-75
2022/01/31 11:01:54;;;;;;;1.10;1.10;;;;;;;4.39;51.68;99037.15;103568;1284;139172;-77
2022/01/31 11:04:37;;;;;;;1.00;1.00;;;;;;;4.24;52.22;99042.05;103554;1284;95747;-78
2022/01/31 11:07:08;;;;;;;1.10;1.10;;;;;;;4.12;52.52;99039.84;103470;1284;139546;-75
2022/01/31 11:09:37;;;;;;;1.10;1.10;;;;;;;4.12;52.95;99035.11;103585;1284;111030;-83
2022/01/31 11:12:06;;;;;;;1.10;1.10;;;;;;;4.05;52.95;99032.98;103857;1284;99459;-74
2022/01/31 11:14:36;;;;;;;1.30;1.30;;;;;;;3.98;53.38;99030.66;103514;1284;137691;-75
2022/01/31 11:17:10;;;;;;;1.30;1.30;;;;;;;3.94;53.39;99025.84;103556;1284;95338;-74
2022/01/31 11:19:42;;;;;;;1.20;1.20;;;;;;;3.96;52.28;99033.36;103416;1284;140024;-74
2022/01/31 11:22:12;;;;;;;1.30;1.30;;;;;;;3.89;52.54;99034.52;103538;1284;109656;-74
2022/01/31 11:25:04;;;;;;;1.20;1.20;;;;;;;3.89;52.91;99034.37;103491;1284;140195;-75
2022/01/31 11:27:33;;;;;;;1.20;1.20;;;;;;;3.89;52.74;99034.55;103792;1284;107795;-74
2022/01/31 11:30:01;;;;;;;1.10;1.10;;;;;;;3.84;52.85;99035.52;103566;1284;95563;-74
2022/01/31 11:32:29;;;;;;;1.00;1.00;;;;;;;3.82;52.48;99038.02;103482;1284;140420;-74
2022/01/31 11:34:56;;;;;;;1.20;1.20;;;;;;;3.73;52.15;99039.09;103595;1284;109246;-80
2022/01/31 11:37:25;;;;;;;1.00;1.00;;;;;;;3.60;52.27;99045.48;103434;1283;139289;-74
2022/01/31 11:39:57;;;;;;;1.20;1.20;;;;;;;3.55;53.12;99050.52;103589;1284;109358;-80
2022/01/31 11:42:25;;;;;;;1.10;1.10;;;;;;;3.51;53.37;99045.66;103195;1285;139428;-76
2022/01/31 11:44:59;;;;;;;1.20;1.20;;;;;;;3.47;53.70;99043.80;103570;1285;95774;-77
2022/01/31 11:47:28;;;;;;;1.20;1.20;;;;;;;3.48;54.08;99045.20;103597;1284;110204;-75
2022/01/31 11:50:03;;;;;;;1.10;1.10;;;;;;;3.52;53.64;99041.08;103500;1284;139078;-79
2022/01/31 11:52:52;;;;;;;1.10;1.10;;;;;;;3.47;53.02;99042.41;103918;1284;109742;-75
2022/01/31 11:55:23;;;;;;;1.20;1.20;;;;;;;3.38;53.14;99043.11;103390;1284;139187;-75
2022/01/31 11:57:52;;;;;;;1.10;1.10;;;;;;;3.39;53.28;99045.56;103569;1284;95828;-75
2022/01/31 12:00:23;;;;;;;1.20;1.20;;;;;;;3.43;53.19;99041.79;103428;1287;139326;-74
2022/01/31 12:02:52;;;;;;;1.20;1.20;;;;;;;3.49;53.16;99039.38;103589;1284;100583;-75
2022/01/31 12:05:22;;;;;;;1.10;1.10;;;;;;;3.61;53.41;99036.89;103522;1284;109334;-75
2022/01/31 12:08:15;;;;;;;1.10;1.10;;;;;;;3.63;52.84;99036.64;103524;1284;137921;-75
2022/01/31 12:10:46;;;;;;;1.10;1.10;;;;;;;3.62;52.96;99042.63;103498;1284;95687;-74